Time;durP1;ratioP1;P1;durP2;ratioP2;P2;SDS_P1;SDS_P2;PMS_P1;PMS_P2;Temp;Humidity;BMP_temperature;BMP_pressure;BME280_temperature;BME280_humidity;BME280_pressure;Samples;Min_cycle;Max_cycle;Signal;HPM_P1;HPM_P2
2021/06/03 00:01:55;;;;;;;36.08;19.10;;;;;;;13.55;52.17;101038.66;3605947;39;20051;-67
2021/06/03 00:04:22;;;;;;;33.70;19.45;;;;;;;13.50;52.34;101032.66;3606297;39;20027;-66
2021/06/03 00:06:49;;;;;;;36.47;20.95;;;;;;;13.48;52.46;101034.50;3605826;39;20112;-67
2021/06/03 00:09:15;;;;;;;29.98;18.98;;;;;;;13.48;52.47;101031.88;3605812;39;20036;-65
2021/06/03 00:11:44;;;;;;;33.50;18.38;;;;;;;13.44;52.49;101030.28;3605735;39;20070;-66
2021/06/03 00:14:11;;;;;;;37.95;19.42;;;;;;;13.42;52.75;101040.03;3605854;39;20343;-66
2021/06/03 00:16:38;;;;;;;33.22;19.00;;;;;;;13.38;52.97;101034.00;3605608;39;20032;-66
2021/06/03 00:19:07;;;;;;;35.03;19.90;;;;;;;13.35;53.06;101042.03;3605937;39;20063;-65
2021/06/03 00:21:35;;;;;;;32.05;19.20;;;;;;;13.35;52.87;101036.75;3605491;39;20036;-65
2021/06/03 00:24:03;;;;;;;30.63;19.20;;;;;;;13.35;53.08;101046.44;3605497;39;20038;-66
2021/06/03 00:26:39;;;;;;;29.67;18.70;;;;;;;13.28;53.17;101044.94;3604363;39;20027;-67
2021/06/03 00:29:09;;;;;;;33.45;18.48;;;;;;;13.31;53.08;101031.66;3606065;39;20310;-65
2021/06/03 00:31:36;;;;;;;33.55;19.42;;;;;;;13.29;53.35;101033.47;3604458;39;20040;-65
2021/06/03 00:34:03;;;;;;;30.17;19.20;;;;;;;13.25;53.28;101037.16;3604382;39;20490;-65
2021/06/03 00:36:29;;;;;;;35.25;20.50;;;;;;;13.22;53.52;101042.53;3605618;39;20339;-65
2021/06/03 00:38:56;;;;;;;31.30;18.55;;;;;;;13.19;53.64;101037.38;3605426;39;20040;-66
2021/06/03 00:41:23;;;;;;;33.10;18.63;;;;;;;13.15;53.70;101038.38;3604693;39;20376;-67
2021/06/03 00:43:50;;;;;;;32.88;17.85;;;;;;;13.09;53.78;101039.44;3604804;39;20396;-66
2021/06/03 00:46:18;;;;;;;36.53;19.05;;;;;;;13.06;53.87;101036.91;3604400;39;20086;-66
2021/06/03 00:48:45;;;;;;;30.42;17.33;;;;;;;13.05;53.80;101046.59;3605694;39;20303;-66
2021/06/03 00:51:12;;;;;;;31.20;18.30;;;;;;;13.02;54.05;101041.44;3604703;39;20042;-66
2021/06/03 00:53:49;;;;;;;33.38;18.38;;;;;;;12.96;53.98;101038.19;3605675;39;20412;-67
2021/06/03 00:56:16;;;;;;;28.77;17.15;;;;;;;12.99;54.17;101038.94;3605723;39;20051;-65
2021/06/03 00:58:43;;;;;;;30.40;17.63;;;;;;;12.98;54.17;101034.56;3605457;39;20042;-65
2021/06/03 01:01:09;;;;;;;30.10;18.23;;;;;;;12.96;54.08;101033.78;3605699;39;20467;-65
2021/06/03 01:03:37;;;;;;;32.17;17.92;;;;;;;12.94;54.17;101035.59;3605551;39;20048;-65
2021/06/03 01:06:06;;;;;;;27.88;17.23;;;;;;;12.93;54.18;101040.94;3605777;39;20044;-66
2021/06/03 01:08:36;;;;;;;28.80;16.65;;;;;;;12.91;54.26;101040.09;3605170;39;20315;-65
2021/06/03 01:11:07;;;;;;;28.60;16.45;;;;;;;12.87;54.28;101036.72;3605316;39;20036;-66
2021/06/03 01:13:45;;;;;;;24.02;16.15;;;;;;;12.79;54.29;101044.03;3605107;39;20040;-67
2021/06/03 01:16:25;;;;;;;27.08;16.88;;;;;;;12.80;54.51;101040.50;3605260;39;20075;-65
2021/06/03 01:18:54;;;;;;;25.35;15.52;;;;;;;12.82;54.59;101043.91;3606134;39;20039;-64
2021/06/03 01:21:31;;;;;;;29.05;17.40;;;;;;;12.79;54.63;101044.03;3605735;39;20040;-64
2021/06/03 01:24:14;;;;;;;28.10;15.90;;;;;;;12.80;54.39;101043.13;3605165;39;20043;-64
2021/06/03 01:26:42;;;;;;;24.25;15.77;;;;;;;12.84;54.40;101047.34;3605357;39;20074;-64
2021/06/03 01:29:09;;;;;;;25.80;16.27;;;;;;;12.88;54.30;101054.22;3605381;39;20048;-65
2021/06/03 01:31:36;;;;;;;23.77;15.60;;;;;;;12.88;54.20;101054.22;3605445;39;20046;-66
2021/06/03 01:34:04;;;;;;;26.33;16.08;;;;;;;12.88;54.47;101054.22;3605159;39;20039;-66
2021/06/03 01:36:31;;;;;;;25.85;16.27;;;;;;;12.88;54.48;101053.38;3605154;39;20046;-66
2021/06/03 01:39:01;;;;;;;25.73;16.25;;;;;;;12.88;54.64;101048.09;3604418;39;20035;-66
2021/06/03 01:41:30;;;;;;;25.13;15.57;;;;;;;12.87;54.49;101049.88;3605645;39;20024;-66
2021/06/03 01:44:01;;;;;;;26.70;16.08;;;;;;;12.85;54.74;101062.22;3605034;39;20124;-66
2021/06/03 01:46:29;;;;;;;31.35;16.48;;;;;;;12.89;54.41;101060.34;3605344;39;20388;-66
2021/06/03 01:48:56;;;;;;;27.08;16.98;;;;;;;12.89;54.52;101055.09;3605117;39;20038;-66
2021/06/03 01:51:26;;;;;;;29.00;16.80;;;;;;;12.90;54.68;101051.53;3605012;39;20321;-67
2021/06/03 01:53:54;;;;;;;27.27;15.93;;;;;;;12.91;54.64;101058.50;3605653;39;20042;-66
2021/06/03 01:56:21;;;;;;;25.52;15.52;;;;;;;12.89;54.76;101061.19;3604962;39;20346;-66
2021/06/03 01:58:49;;;;;;;34.40;16.55;;;;;;;12.89;54.98;101060.34;3603843;39;20136;-66
2021/06/03 02:01:19;;;;;;;24.55;16.20;;;;;;;12.90;54.70;101065.56;3604019;39;20110;-66
2021/06/03 02:03:46;;;;;;;24.48;16.10;;;;;;;12.91;54.55;101075.19;3604715;39;20048;-66
2021/06/03 02:06:13;;;;;;;23.80;15.43;;;;;;;12.93;54.67;101069.88;3603833;39;20032;-66
2021/06/03 02:08:40;;;;;;;25.23;16.30;;;;;;;13.01;54.68;101076.56;3605674;39;20039;-66
2021/06/03 02:11:08;;;;;;;24.67;16.50;;;;;;;13.13;54.37;101075.28;3605346;39;20035;-66
2021/06/03 02:13:38;;;;;;;28.77;16.92;;;;;;;13.18;54.23;101073.38;3604986;39;20039;-66
2021/06/03 02:16:13;;;;;;;24.45;16.20;;;;;;;13.18;54.01;101064.63;3605253;39;20048;-66
2021/06/03 02:18:43;;;;;;;30.85;16.30;;;;;;;13.27;53.98;101065.13;3603556;39;20047;-67
2021/06/03 02:21:14;;;;;;;25.40;15.57;;;;;;;13.30;54.11;101061.53;3604380;39;20461;-66
2021/06/03 02:23:41;;;;;;;24.30;15.90;;;;;;;13.34;53.99;101058.75;3604478;39;20039;-67
2021/06/03 02:26:08;;;;;;;24.13;15.10;;;;;;;13.38;53.85;101070.03;3604823;39;20046;-66
2021/06/03 02:28:35;;;;;;;23.17;14.68;;;;;;;13.38;53.55;101067.41;3604669;39;20046;-66
2021/06/03 02:31:03;;;;;;;24.35;14.15;;;;;;;13.43;53.34;101068.06;3604531;39;20036;-67
2021/06/03 02:33:31;;;;;;;19.85;14.52;;;;;;;13.48;53.22;101070.53;3604844;39;20035;-66
2021/06/03 02:35:59;;;;;;;22.42;15.45;;;;;;;13.50;53.05;101069.56;3603616;39;20154;-66
2021/06/03 02:38:27;;;;;;;33.15;16.98;;;;;;;13.52;53.08;101066.84;3604695;39;20039;-66
2021/06/03 02:40:57;;;;;;;27.67;17.13;;;;;;;13.53;53.25;101063.31;3604743;39;20035;-66
2021/06/03 02:43:24;;;;;;;23.98;17.48;;;;;;;13.52;53.07;101058.94;3605287;39;20125;-68
2021/06/03 02:45:51;;;;;;;22.08;15.02;;;;;;;13.51;52.93;101066.00;3605733;39;20112;-68
2021/06/03 02:48:17;;;;;;;22.10;14.85;;;;;;;13.49;53.08;101062.56;3605306;39;20027;-67
2021/06/03 02:50:46;;;;;;;22.73;16.05;;;;;;;13.51;52.89;101068.63;3606725;39;20116;-67
2021/06/03 02:53:13;;;;;;;27.40;15.32;;;;;;;13.56;52.77;101061.44;3606794;39;20063;-67
2021/06/03 02:55:44;;;;;;;21.75;14.63;;;;;;;13.55;52.60;101061.50;3606483;39;20039;-66
2021/06/03 02:58:16;;;;;;;20.70;14.63;;;;;;;13.57;52.67;101063.16;3606616;39;20032;-67
2021/06/03 03:04:06;;;;;;;23.52;14.63;;;;;;;13.68;52.49;101063.59;3602427;39;20121;-66
2021/06/03 03:06:39;;;;;;;22.33;14.57;;;;;;;13.71;52.03;101068.75;3604634;39;20486;-67
2021/06/03 03:09:07;;;;;;;22.13;14.70;;;;;;;13.80;51.68;101071.97;3605351;39;20032;-64
2021/06/03 03:11:44;;;;;;;20.77;13.88;;;;;;;13.88;51.43;101077.78;3605050;39;20132;-66
2021/06/03 03:14:12;;;;;;;23.45;15.10;;;;;;;13.97;51.18;101072.16;3622407;39;20044;-64
2021/06/03 03:16:39;;;;;;;21.08;14.57;;;;;;;14.07;51.31;101081.41;3605524;39;20082;-64
2021/06/03 03:19:06;;;;;;;20.80;14.13;;;;;;;14.18;51.08;101070.47;3605509;39;20095;-64
2021/06/03 03:21:33;;;;;;;22.10;15.88;;;;;;;14.29;50.84;101081.41;3606764;39;20176;-64
2021/06/03 03:24:01;;;;;;;21.63;14.25;;;;;;;14.44;50.82;101077.34;3606427;39;20072;-64
2021/06/03 03:26:28;;;;;;;24.90;14.63;;;;;;;14.51;50.55;101092.84;3606532;39;20051;-64
2021/06/03 03:28:54;;;;;;;25.60;14.43;;;;;;;14.53;50.75;101085.72;3607400;39;20076;-64
2021/06/03 03:31:21;;;;;;;22.92;14.70;;;;;;;14.54;50.69;101084.78;3606983;39;20032;-64
2021/06/03 03:33:48;;;;;;;19.50;13.18;;;;;;;14.63;50.34;101083.56;3607246;39;20052;-64
2021/06/03 03:36:15;;;;;;;17.42;13.52;;;;;;;14.73;50.30;101089.31;3605483;39;20043;-66
2021/06/03 03:38:41;;;;;;;20.50;13.75;;;;;;;14.81;50.38;101084.59;3606541;39;20031;-64
2021/06/03 03:41:09;;;;;;;24.33;13.65;;;;;;;14.98;49.65;101087.34;3606508;39;20040;-63
2021/06/03 03:43:36;;;;;;;18.35;13.63;;;;;;;15.22;48.84;101085.44;3606324;39;20048;-64
2021/06/03 03:46:03;;;;;;;17.88;13.90;;;;;;;15.30;48.54;101085.06;3605316;39;20493;-65
2021/06/03 03:48:30;;;;;;;18.98;13.30;;;;;;;15.35;48.37;101089.22;3607287;39;20122;-65
2021/06/03 03:50:57;;;;;;;19.88;13.80;;;;;;;15.33;48.27;101082.28;3605467;39;20043;-64
2021/06/03 03:53:23;;;;;;;21.98;13.57;;;;;;;15.26;48.30;101087.00;3606385;39;20061;-64
2021/06/03 03:55:50;;;;;;;19.38;12.77;;;;;;;15.23;48.11;101081.84;3606719;39;20039;-63
2021/06/03 03:58:18;;;;;;;18.85;12.55;;;;;;;15.25;48.36;101083.50;3606611;39;20036;-63
2021/06/03 04:00:45;;;;;;;23.27;13.02;;;;;;;15.36;47.99;101087.44;3605395;39;20039;-63
2021/06/03 04:03:12;;;;;;;19.95;12.27;;;;;;;15.44;47.71;101088.81;3607296;39;20047;-62
2021/06/03 04:05:39;;;;;;;16.33;11.82;;;;;;;15.55;47.69;101083.91;3606185;39;20091;-64
2021/06/03 04:08:06;;;;;;;18.48;12.13;;;;;;;15.68;47.13;101094.81;3607403;39;20120;-64
2021/06/03 04:10:33;;;;;;;18.70;12.50;;;;;;;15.77;46.97;101090.88;3607047;39;20036;-64
2021/06/03 04:12:59;;;;;;;19.92;12.13;;;;;;;15.76;46.75;101091.78;3606439;39;20091;-65
2021/06/03 04:15:28;;;;;;;20.40;12.75;;;;;;;15.87;46.77;101093.97;3606817;39;20034;-65
2021/06/03 04:17:55;;;;;;;21.75;13.65;;;;;;;16.10;46.21;101086.66;3606114;39;20097;-66
2021/06/03 04:20:23;;;;;;;17.58;12.75;;;;;;;16.25;46.00;101079.75;3606240;39;20391;-65
2021/06/03 04:22:50;;;;;;;19.85;13.05;;;;;;;16.27;45.41;101077.91;3606009;39;20042;-65
2021/06/03 04:25:18;;;;;;;17.02;13.00;;;;;;;16.20;45.68;101083.53;3606523;39;20039;-66
2021/06/03 04:27:45;;;;;;;19.90;13.90;;;;;;;16.26;45.62;101091.19;3606383;39;20083;-66
2021/06/03 04:30:17;;;;;;;20.00;13.23;;;;;;;16.37;45.01;101094.16;3606500;39;20060;-66
2021/06/03 04:32:45;;;;;;;22.63;13.65;;;;;;;16.52;44.97;101088.13;3606096;39;20040;-66
2021/06/03 04:35:14;;;;;;;23.35;13.98;;;;;;;16.75;44.13;101090.50;3606614;39;20032;-65
2021/06/03 04:37:42;;;;;;;26.65;15.77;;;;;;;16.93;44.05;101098.47;3606348;39;20251;-65
2021/06/03 04:40:13;;;;;;;28.08;17.05;;;;;;;17.03;44.10;101089.94;3606454;39;20044;-65
2021/06/03 04:42:41;;;;;;;27.80;17.45;;;;;;;17.30;43.23;101092.97;3605355;39;20039;-64
2021/06/03 04:45:11;;;;;;;27.20;18.15;;;;;;;17.51;43.18;101092.75;3606118;39;20039;-64
2021/06/03 04:47:38;;;;;;;29.38;20.25;;;;;;;17.61;42.87;101093.97;3606645;39;20040;-64
2021/06/03 04:50:08;;;;;;;29.35;19.10;;;;;;;17.73;42.64;101092.47;3606918;39;20034;-64
2021/06/03 04:52:35;;;;;;;33.15;19.77;;;;;;;17.90;42.67;101092.38;3606566;39;20044;-64
2021/06/03 04:55:06;;;;;;;28.50;18.10;;;;;;;17.93;42.70;101090.44;3606495;39;20040;-64
2021/06/03 04:57:33;;;;;;;26.52;16.40;;;;;;;18.02;42.45;101097.03;3606588;39;20036;-64
2021/06/03 05:00:00;;;;;;;22.15;14.80;;;;;;;18.09;42.02;101103.69;3605193;39;20024;-64
2021/06/03 05:02:27;;;;;;;23.98;14.82;;;;;;;18.23;41.77;101105.56;3604897;39;20035;-65
2021/06/03 05:04:54;;;;;;;23.67;14.55;;;;;;;18.37;41.62;101096.84;3606455;39;20044;-67
2021/06/03 05:07:22;;;;;;;19.23;14.02;;;;;;;18.57;41.50;101102.72;3604871;39;20387;-64
2021/06/03 05:09:49;;;;;;;21.05;13.75;;;;;;;18.77;40.75;101101.59;3606261;39;20038;-65
2021/06/03 05:12:16;;;;;;;19.45;13.70;;;;;;;18.95;40.66;101104.94;3606064;39;20135;-64
2021/06/03 05:14:43;;;;;;;20.02;13.88;;;;;;;19.22;40.49;101107.75;3606077;39;20048;-65
2021/06/03 05:17:10;;;;;;;18.25;12.00;;;;;;;19.41;40.13;101108.34;3605948;39;20044;-65
2021/06/03 05:19:37;;;;;;;20.05;13.05;;;;;;;19.68;39.70;101111.09;3606006;39;20303;-65
2021/06/03 05:22:04;;;;;;;14.98;11.40;;;;;;;19.85;39.28;101109.19;3606269;39;20046;-65
2021/06/03 05:24:33;;;;;;;15.82;11.88;;;;;;;19.95;39.03;101107.66;3605898;39;20035;-65
2021/06/03 05:26:59;;;;;;;15.80;11.57;;;;;;;20.09;39.35;101110.28;3606197;39;20089;-64
2021/06/03 05:29:27;;;;;;;17.13;11.23;;;;;;;20.29;39.21;101117.00;3606152;39;20068;-65
2021/06/03 05:31:54;;;;;;;14.77;10.95;;;;;;;20.50;38.42;101104.97;3606292;39;20027;-64
2021/06/03 05:34:21;;;;;;;13.35;11.88;;;;;;;20.74;38.44;101107.78;3606535;39;20067;-65
2021/06/03 05:36:48;;;;;;;14.68;11.07;;;;;;;20.99;37.76;101107.84;3606270;39;20092;-65
2021/06/03 05:39:15;;;;;;;17.70;11.52;;;;;;;21.09;37.67;101109.91;3606129;39;20038;-64
2021/06/03 05:41:43;;;;;;;13.60;9.45;;;;;;;21.39;37.35;101107.78;3605885;39;20071;-65
2021/06/03 05:44:12;;;;;;;16.02;9.63;;;;;;;21.65;36.81;101105.94;3605942;39;20039;-65
2021/06/03 05:46:39;;;;;;;15.48;10.88;;;;;;;21.81;36.29;101109.22;3606068;39;20032;-65
2021/06/03 05:49:06;;;;;;;18.42;12.73;;;;;;;22.15;35.77;101109.50;3606117;39;20051;-63
2021/06/03 05:51:33;;;;;;;16.30;9.48;;;;;;;22.52;34.56;101102.31;3605754;39;20031;-65
2021/06/03 05:54:00;;;;;;;12.63;8.15;;;;;;;22.80;33.26;101099.25;3606517;39;20048;-66
2021/06/03 05:56:28;;;;;;;10.98;8.30;;;;;;;23.07;33.29;101100.78;3605757;39;20051;-66
2021/06/03 05:58:57;;;;;;;14.40;8.70;;;;;;;23.34;32.50;101097.81;3605653;39;20058;-66
2021/06/03 06:01:24;;;;;;;15.10;7.88;;;;;;;23.20;32.78;101098.88;3604659;39;20089;-66
2021/06/03 06:03:57;;;;;;;9.50;7.88;;;;;;;23.34;32.58;101098.66;3605485;39;20067;-68
2021/06/03 06:06:24;;;;;;;14.30;8.57;;;;;;;23.68;32.16;101098.69;3604607;39;20043;-67
2021/06/03 06:08:52;;;;;;;11.57;8.32;;;;;;;24.25;31.02;101100.31;3606294;39;20040;-68
2021/06/03 06:11:19;;;;;;;12.93;8.35;;;;;;;24.37;30.58;101112.75;3604788;39;20058;-68
2021/06/03 06:13:47;;;;;;;15.07;9.57;;;;;;;24.74;30.56;101109.66;3605044;39;20049;-62
2021/06/03 06:16:15;;;;;;;11.02;8.40;;;;;;;25.38;29.94;101098.81;3604544;39;20317;-63
2021/06/03 06:18:43;;;;;;;16.60;8.60;;;;;;;27.58;27.06;101101.84;3603928;39;20036;-62
2021/06/03 06:21:11;;;;;;;10.40;8.02;;;;;;;27.76;26.68;101088.47;3604436;39;20031;-63
2021/06/03 06:23:40;;;;;;;12.15;8.52;;;;;;;27.72;26.85;101105.09;3604855;39;20039;-63
2021/06/03 06:26:08;;;;;;;9.38;7.47;;;;;;;27.71;26.69;101101.56;3603764;39;20028;-60
2021/06/03 06:28:35;;;;;;;11.13;7.55;;;;;;;27.41;27.28;101099.06;3604706;39;20063;-54
2021/06/03 06:31:03;;;;;;;10.20;7.07;;;;;;;27.92;26.85;101104.00;3605129;39;20038;-59
2021/06/03 06:33:32;;;;;;;10.20;8.35;;;;;;;30.22;23.79;101091.06;3604746;39;20039;-52
2021/06/03 06:35:59;;;;;;;9.70;7.63;;;;;;;34.12;20.24;101096.13;3604935;39;20108;-56
2021/06/03 06:38:26;;;;;;;10.70;7.28;;;;;;;33.00;20.96;101094.56;3605286;39;20035;-60
2021/06/03 06:40:54;;;;;;;10.88;7.88;;;;;;;33.41;20.48;101100.44;3604457;39;20541;-61
2021/06/03 06:43:21;;;;;;;11.15;7.75;;;;;;;34.33;19.25;101091.75;3604629;39;20058;-68
2021/06/03 06:45:49;;;;;;;12.25;8.30;;;;;;;35.53;18.63;101095.31;3604690;39;20540;-62
2021/06/03 06:48:16;;;;;;;7.60;6.80;;;;;;;37.94;16.21;101095.09;3604232;39;20052;-61
2021/06/03 06:50:47;;;;;;;9.18;6.30;;;;;;;36.09;17.70;101092.44;3604436;39;20402;-62
2021/06/03 06:53:14;;;;;;;15.48;6.97;;;;;;;36.39;17.22;101095.66;3604674;39;20036;-61
2021/06/03 06:55:42;;;;;;;7.40;6.15;;;;;;;36.97;16.79;101092.38;3604529;39;20065;-60
2021/06/03 06:58:08;;;;;;;10.27;6.32;;;;;;;38.93;15.50;101090.84;3605377;39;20083;-64
2021/06/03 07:00:37;;;;;;;9.90;7.22;;;;;;;43.86;11.77;101081.81;3604524;39;20032;-67
2021/06/03 07:03:07;;;;;;;7.80;6.25;;;;;;;46.87;10.20;101096.22;3604336;39;20043;-60
2021/06/03 07:05:34;;;;;;;7.93;6.25;;;;;;;43.99;11.40;101098.81;3604807;39;20034;-72
2021/06/03 07:08:02;;;;;;;8.35;6.18;;;;;;;42.58;12.74;101102.03;3604350;39;20402;-61
2021/06/03 07:10:30;;;;;;;8.93;5.95;;;;;;;42.77;12.22;101096.25;3604426;39;20046;-58
2021/06/03 07:12:57;;;;;;;8.45;6.05;;;;;;;41.35;13.61;101097.06;3604630;39;20055;-62
2021/06/03 07:15:25;;;;;;;7.05;5.90;;;;;;;40.33;13.71;101096.41;3604322;39;20028;-62
2021/06/03 07:17:53;;;;;;;6.85;5.80;;;;;;;40.27;14.10;101091.88;3594747;40;20040;-58
2021/06/03 07:20:20;;;;;;;8.00;5.28;;;;;;;40.92;13.73;101094.66;3593215;39;20303;-59
2021/06/03 07:22:49;;;;;;;8.55;5.72;;;;;;;44.36;11.28;101084.31;3594099;39;20036;-62
2021/06/03 07:25:20;;;;;;;8.90;5.57;;;;;;;46.35;10.06;101088.97;3594253;39;20284;-59
2021/06/03 07:27:48;;;;;;;10.43;6.15;;;;;;;44.93;10.26;101092.81;3594528;39;20705;-59
2021/06/03 07:30:17;;;;;;;6.90;4.97;;;;;;;45.66;9.24;101092.13;3594396;39;20040;-59
2021/06/03 07:32:44;;;;;;;7.20;3.50;;;;;;;47.21;8.53;101101.97;3594692;39;20054;-58
2021/06/03 07:35:13;;;;;;;5.65;3.85;;;;;;;45.28;9.22;101096.91;3594344;39;20066;-59
2021/06/03 07:51:50;;;;;;;8.00;3.90;;;;;;;48.10;7.96;101092.69;3604377;39;20047;-60
2021/06/03 07:54:18;;;;;;;5.80;3.42;;;;;;;47.41;7.82;101089.97;3595215;40;20036;-55
2021/06/03 07:56:45;;;;;;;5.35;4.40;;;;;;;46.26;8.41;101097.00;3596014;39;20040;-61
2021/06/03 07:59:12;;;;;;;4.57;3.60;;;;;;;46.05;8.71;101101.69;3586485;40;20042;-58
2021/06/03 08:01:39;;;;;;;5.55;3.60;;;;;;;47.17;7.71;101096.16;3595652;39;20046;-58
2021/06/03 08:04:05;;;;;;;6.13;4.25;;;;;;;48.32;7.50;101094.25;3595966;39;20036;-65
2021/06/03 08:06:32;;;;;;;5.82;4.10;;;;;;;49.10;6.62;101094.91;3595418;39;20415;-59
2021/06/03 08:16:31;;;;;;;6.35;4.60;;;;;;;51.73;5.40;101087.28;3583647;40;20049;-58
2021/06/03 08:18:58;;;;;;;6.53;4.00;;;;;;;51.43;5.18;101092.34;3599133;39;20035;-58
2021/06/03 08:21:26;;;;;;;3.60;3.22;;;;;;;50.89;5.44;101096.78;3606010;39;20082;-57
2021/06/03 08:23:55;;;;;;;7.43;4.15;;;;;;;51.92;4.88;101093.53;3605992;39;20047;-57
2021/06/03 08:26:23;;;;;;;4.57;3.67;;;;;;;51.90;5.15;101089.41;3605748;39;20071;-55
2021/06/03 08:28:51;;;;;;;5.97;3.53;;;;;;;51.63;4.87;101084.66;3606057;39;20042;-57
2021/06/03 08:31:18;;;;;;;5.75;3.15;;;;;;;51.72;4.40;101086.44;3605110;39;20814;-59
2021/06/03 08:33:46;;;;;;;5.78;3.40;;;;;;;51.72;4.73;101086.44;3605182;39;20035;-56
2021/06/03 08:36:13;;;;;;;4.75;3.70;;;;;;;52.38;4.69;101084.88;3604888;39;20539;-51
2021/06/03 08:38:40;;;;;;;5.22;3.08;;;;;;;52.61;3.53;101087.66;3605563;39;20432;-54
2021/06/03 08:41:06;;;;;;;4.60;3.28;;;;;;;52.72;3.84;101080.66;3605452;39;20016;-51
2021/06/03 08:43:34;;;;;;;4.75;2.85;;;;;;;52.30;3.45;101087.59;3605585;39;20074;-50
2021/06/03 08:46:03;;;;;;;4.60;2.65;;;;;;;50.90;3.95;101081.69;3605475;39;20077;-54
2021/06/03 08:48:30;;;;;;;4.38;2.22;;;;;;;50.71;3.98;101089.31;3606200;39;20044;-51
2021/06/03 08:51:01;;;;;;;5.15;2.38;;;;;;;50.49;3.85;101081.56;3605887;39;20032;-52
2021/06/03 08:53:31;;;;;;;4.72;2.80;;;;;;;50.72;4.03;101076.16;3606087;39;20124;-60
2021/06/03 08:56:17;;;;;;;4.65;3.00;;;;;;;51.09;3.71;101072.41;3595849;39;20038;-59
2021/06/03 08:58:46;;;;;;;3.50;2.75;;;;;;;47.23;5.45;101074.75;3606179;39;20126;-58
2021/06/03 09:01:13;;;;;;;4.25;3.40;;;;;;;48.31;4.90;101076.69;3605422;39;20478;-58
2021/06/03 09:03:41;;;;;;;4.45;2.47;;;;;;;45.16;6.21;101079.66;3605345;39;20331;-57
2021/06/03 09:06:10;;;;;;;5.00;2.90;;;;;;;44.10;6.63;101074.91;3605626;39;20422;-58
2021/06/03 09:08:38;;;;;;;3.70;2.20;;;;;;;44.55;5.83;101074.50;3596209;39;20264;-56
2021/06/03 09:11:08;;;;;;;3.28;2.20;;;;;;;43.74;5.89;101073.69;3605798;39;20039;-53
2021/06/03 09:13:36;;;;;;;;;;;;;;;42.55;6.44;101063.09;3607001;39;20040;-54
2021/06/03 09:16:15;;;;;;;2.35;2.10;;;;;;;40.43;7.30;101064.59;3605539;39;20024;-54
2021/06/03 09:18:44;;;;;;;4.38;3.08;;;;;;;38.51;8.79;101059.56;3605517;39;20450;-56
2021/06/03 09:21:15;;;;;;;3.95;2.50;;;;;;;36.82;9.84;101067.97;3596082;39;20039;-55
2021/06/03 09:23:43;;;;;;;4.60;2.30;;;;;;;35.77;10.38;101063.94;3606034;39;20043;-55
2021/06/03 09:28:58;;;;;;;4.60;2.53;;;;;;;35.62;11.08;101060.53;3606231;39;20036;-58
2021/06/03 09:31:26;;;;;;;3.00;2.45;;;;;;;36.04;10.54;101060.31;3605721;39;20064;-59
2021/06/03 09:33:57;;;;;;;4.70;2.95;;;;;;;36.55;10.20;101065.22;3606112;39;20046;-60
2021/06/03 09:36:38;;;;;;;2.65;2.45;;;;;;;35.77;10.36;101054.91;3605854;39;20042;-60
2021/06/03 09:39:09;;;;;;;5.93;2.80;;;;;;;35.36;11.09;101055.78;3605274;39;20379;-59
2021/06/03 09:41:38;;;;;;;3.92;2.88;;;;;;;35.09;12.34;101057.47;3605151;39;20417;-59
2021/06/03 09:44:17;;;;;;;4.85;2.90;;;;;;;34.48;12.43;101062.63;3605931;39;20116;-61
2021/06/03 09:46:48;;;;;;;5.90;3.00;;;;;;;33.51;13.14;101062.06;3605198;39;20314;-58
2021/06/03 09:49:18;;;;;;;4.07;3.10;;;;;;;32.96;13.58;101072.34;3604480;39;20040;-53
2021/06/03 09:51:48;;;;;;;4.07;2.85;;;;;;;33.24;13.66;101069.00;3604909;39;20034;-56
2021/06/03 09:54:19;;;;;;;5.22;3.60;;;;;;;33.05;14.14;101065.78;3604865;39;20028;-51
2021/06/03 09:56:49;;;;;;;6.03;3.40;;;;;;;33.17;13.45;101062.63;3605232;39;20067;-54
2021/06/03 09:59:18;;;;;;;4.53;2.80;;;;;;;33.64;13.38;101060.38;3604994;39;20027;-53
2021/06/03 10:01:54;;;;;;;4.80;2.80;;;;;;;34.26;12.93;101056.31;3604597;39;20055;-54
2021/06/03 10:04:41;;;;;;;4.85;3.15;;;;;;;34.59;12.34;101051.22;3594512;39;20396;-52
2021/06/03 10:07:27;;;;;;;3.33;2.95;;;;;;;34.35;13.09;101057.03;3580356;40;20041;-47
2021/06/03 10:10:13;;;;;;;5.30;2.58;;;;;;;33.90;13.24;101061.78;3579513;40;20425;-53
2021/06/03 10:12:45;;;;;;;5.78;3.15;;;;;;;33.32;13.49;101060.81;3584569;40;20411;-53
2021/06/03 10:15:43;;;;;;;4.57;2.75;;;;;;;32.83;13.98;101060.41;3575142;40;20032;-50
2021/06/03 10:18:29;;;;;;;4.95;3.03;;;;;;;32.12;14.42;101063.31;3584464;40;20071;-54
2021/06/03 10:20:57;;;;;;;4.32;3.00;;;;;;;31.74;15.07;101065.03;3584454;40;20364;-56
2021/06/03 10:23:28;;;;;;;4.50;3.08;;;;;;;31.33;15.80;101071.59;3585424;40;20062;-58
2021/06/03 10:25:57;;;;;;;4.18;2.70;;;;;;;30.79;15.52;101065.91;3584982;40;20118;-55
2021/06/03 10:28:24;;;;;;;3.63;2.72;;;;;;;30.78;15.83;101064.22;3584287;40;20264;-54
2021/06/03 10:30:53;;;;;;;5.75;3.33;;;;;;;31.27;15.76;101061.47;3583363;40;20032;-52
2021/06/03 10:33:22;;;;;;;3.90;2.93;;;;;;;31.79;15.31;101057.22;3584735;40;20029;-58
2021/06/03 10:35:51;;;;;;;4.10;3.08;;;;;;;32.21;14.49;101053.22;3574968;40;20501;-55
2021/06/03 10:38:19;;;;;;;5.30;3.00;;;;;;;32.37;14.55;101055.88;3575572;40;20047;-56
2021/06/03 10:40:50;;;;;;;4.43;3.03;;;;;;;32.45;14.97;101055.78;3575386;40;20114;-57
2021/06/03 10:43:16;;;;;;;;;;;;;;;32.61;15.06;101045.81;3575635;40;20044;-55
2021/06/03 10:45:44;;;;;;;4.38;2.97;;;;;;;32.81;15.29;101055.19;3574881;40;19945;-56
2021/06/03 10:48:12;;;;;;;6.43;3.40;;;;;;;32.84;14.56;101053.97;3574853;40;20044;-56
2021/06/03 10:50:41;;;;;;;5.65;3.00;;;;;;;32.46;14.79;101056.63;3574918;40;20064;-57
2021/06/03 10:53:10;;;;;;;3.45;2.65;;;;;;;31.93;14.78;101052.06;3575418;40;20037;-55
2021/06/03 10:55:39;;;;;;;7.22;3.00;;;;;;;31.34;15.29;101046.19;3575228;40;20060;-50
2021/06/03 10:58:10;;;;;;;3.07;2.57;;;;;;;31.01;15.69;101056.22;3575544;40;20110;-56
2021/06/03 11:00:38;;;;;;;;;;;;;;;30.70;15.72;101053.41;3575813;40;20033;-53
2021/06/03 11:03:07;;;;;;;6.13;3.30;;;;;;;30.50;15.65;101053.72;3574961;40;20115;-54
2021/06/03 11:05:36;;;;;;;3.15;2.85;;;;;;;30.25;16.64;101055.56;3575011;40;20033;-54
2021/06/03 11:08:27;;;;;;;5.53;2.90;;;;;;;29.46;16.85;101057.81;3565267;40;20040;-55
2021/06/03 11:10:55;;;;;;;5.55;2.83;;;;;;;28.96;17.32;101061.22;3574886;40;20047;-50
2021/06/03 11:13:24;;;;;;;3.50;2.80;;;;;;;28.62;17.62;101058.38;3576927;40;20388;-54
2021/06/03 11:16:10;;;;;;;4.85;3.67;;;;;;;28.91;17.28;101048.16;3566645;40;20126;-50
2021/06/03 11:19:13;;;;;;;8.65;3.40;;;;;;;29.44;16.94;101042.59;3576191;40;20060;-56
2021/06/03 11:22:04;;;;;;;4.00;2.97;;;;;;;29.79;16.76;101032.63;3576644;40;20029;-56
2021/06/03 11:24:50;;;;;;;4.65;2.90;;;;;;;30.10;15.84;101042.84;3576952;40;20040;-56
2021/06/03 11:27:35;;;;;;;5.60;2.88;;;;;;;30.56;15.81;101025.97;3576759;40;20312;-56
2021/06/03 11:30:10;;;;;;;4.93;2.70;;;;;;;30.74;15.66;101036.66;3576490;40;20045;-55
2021/06/03 11:32:42;;;;;;;11.00;7.45;;;;;;;31.18;15.78;101030.84;3567310;40;20053;-58
2021/06/03 11:35:12;;;;;;;5.15;4.10;;;;;;;31.46;15.70;101023.97;3577150;40;20041;-57
2021/06/03 11:37:48;;;;;;;4.65;3.10;;;;;;;31.46;15.88;101028.56;3576491;40;20459;-58
2021/06/03 11:40:19;;;;;;;3.65;2.80;;;;;;;31.53;16.56;101018.69;3576481;40;20387;-56
2021/06/03 11:42:48;;;;;;;5.35;2.97;;;;;;;31.36;16.28;101020.63;3578374;40;20057;-58
2021/06/03 11:45:23;;;;;;;3.75;2.72;;;;;;;31.03;15.91;101013.56;3583895;40;20041;-57
2021/06/03 11:48:11;;;;;;;3.80;3.10;;;;;;;30.52;16.03;101019.22;3584919;40;20125;-58
2021/06/03 11:50:48;;;;;;;3.63;2.95;;;;;;;30.40;16.82;101014.28;3584349;40;20040;-57
2021/06/03 11:53:18;;;;;;;4.55;2.85;;;;;;;30.41;16.53;101013.31;3585684;40;20041;-58
2021/06/03 11:55:48;;;;;;;8.15;3.00;;;;;;;29.92;17.10;101022.16;3586185;40;20040;-54
2021/06/03 11:58:27;;;;;;;3.97;3.13;;;;;;;29.21;17.76;101019.84;3584122;40;20072;-52